Time;durP1;ratioP1;P1;durP2;ratioP2;P2;SDS_P1;SDS_P2;PMS_P1;PMS_P2;Temp;Humidity;BMP_temperature;BMP_pressure;BME280_temperature;BME280_humidity;BME280_pressure;Samples;Min_cycle;Max_cycle;Signal;HPM_P1;HPM_P2
2021/12/28 00:01:00;;;;;;;72.07;40.88;;;-2.60;99.90;;;-2.76;71.44;100038.19;4938103;29;20551;-63
2021/12/28 00:03:29;;;;;;;79.10;45.22;;;-2.60;99.90;;;-2.81;71.44;100043.06;4937133;29;20284;-63
2021/12/28 00:05:58;;;;;;;73.82;44.83;;;-2.60;99.90;;;-2.83;71.71;100037.03;4935672;29;20232;-61
2021/12/28 00:08:29;;;;;;;75.95;42.40;;;-2.60;99.90;;;-2.86;71.99;100037.31;4937319;29;20587;-65
2021/12/28 00:10:58;;;;;;;75.43;46.22;;;-2.70;99.90;;;-2.88;71.64;100040.09;4937338;29;20188;-64
2021/12/28 00:13:28;;;;;;;68.10;42.17;;;-2.70;99.90;;;-2.90;71.84;100041.19;4937146;29;20197;-66
2021/12/28 00:16:24;;;;;;;83.63;45.53;;;-2.70;99.90;;;-2.89;71.83;100053.47;4936595;29;20169;-65
2021/12/28 00:18:51;;;;;;;70.32;41.72;;;-2.70;99.90;;;-2.93;72.44;100041.47;4936536;29;20299;-64
2021/12/28 00:21:20;;;;;;;72.85;45.13;;;-2.80;99.90;;;-2.93;71.94;100046.78;4937094;29;20193;-64
2021/12/28 00:23:50;;;;;;;74.93;45.17;;;-2.80;99.90;;;-2.97;71.81;100051.50;4936953;29;20192;-63
2021/12/28 00:26:20;;;;;;;68.88;43.40;;;-2.80;99.90;;;-2.98;72.01;100047.19;4936534;29;20197;-64
2021/12/28 00:28:48;;;;;;;78.97;43.53;;;-2.80;99.90;;;-2.99;72.18;100047.31;4936767;29;20215;-64
2021/12/28 00:31:17;;;;;;;87.45;44.35;;;-2.80;99.90;;;-2.96;71.74;100052.34;4935314;29;20201;-63
2021/12/28 00:33:47;;;;;;;81.07;45.03;;;-2.80;99.90;;;-2.99;71.94;100042.03;4936947;29;20189;-64
2021/12/28 00:36:16;;;;;;;80.53;43.78;;;-2.80;99.90;;;-3.02;71.85;100050.25;4936500;29;20196;-63
2021/12/28 00:38:45;;;;;;;92.60;46.85;;;-2.80;99.90;;;-3.04;72.41;100057.47;4937075;29;20220;-64
2021/12/28 00:41:15;;;;;;;73.70;44.70;;;-2.90;99.90;;;-3.04;72.84;100054.81;4937822;29;20197;-64
2021/12/28 00:43:44;;;;;;;94.55;46.13;;;-2.90;99.90;;;-3.10;72.24;100054.38;4938529;29;20203;-64
2021/12/28 00:46:12;;;;;;;77.45;44.80;;;-2.90;99.90;;;-3.17;72.62;100045.34;4937887;29;20236;-64
2021/12/28 00:48:41;;;;;;;80.05;46.13;;;-2.90;99.90;;;-3.14;72.86;100053.00;4938960;29;20296;-63
2021/12/28 00:51:10;;;;;;;77.05;42.78;;;-2.90;99.90;;;-3.15;72.97;100053.97;4938774;29;20189;-62
2021/12/28 00:53:38;;;;;;;72.15;44.38;;;-2.90;99.90;;;-3.17;72.74;100053.28;4939718;29;20173;-64
2021/12/28 00:56:07;;;;;;;68.43;41.88;;;-2.90;99.90;;;-3.09;72.46;100048.13;4939018;28;20177;-64
2021/12/28 00:58:37;;;;;;;82.97;46.42;;;-2.90;99.90;;;-3.09;72.95;100042.00;4953636;23;21533;-68
2021/12/28 01:01:06;;;;;;;81.68;47.00;;;-2.90;99.90;;;-3.15;72.76;100038.09;4953176;28;20196;-69
2021/12/28 01:03:38;;;;;;;75.15;45.13;;;-2.90;99.90;;;-3.18;72.96;100026.94;4958904;29;20218;-68
2021/12/28 01:06:07;;;;;;;83.80;47.55;;;-3.00;99.90;;;-3.10;72.41;100024.47;4956908;28;20665;-69
2021/12/28 01:08:35;;;;;;;88.38;46.50;;;-2.90;99.90;;;-3.14;72.50;100018.59;4956140;28;20282;-67
2021/12/28 01:11:05;;;;;;;77.20;43.55;;;-3.00;99.90;;;-3.23;72.66;100019.41;4957052;28;20192;-68
2021/12/28 01:13:33;;;;;;;76.45;45.17;;;-3.00;99.90;;;-3.19;72.59;100020.81;4957684;28;20192;-68
2021/12/28 01:16:03;;;;;;;85.57;43.55;;;-3.00;99.90;;;-3.30;73.35;100020.94;4957429;28;20188;-68
2021/12/28 01:18:32;;;;;;;93.40;46.28;;;-3.10;99.90;;;-3.19;73.05;100025.25;4972639;28;20595;-68
2021/12/28 01:21:04;;;;;;;79.88;44.38;;;-3.10;99.90;;;-3.21;72.80;100027.22;4957671;28;20218;-68
2021/12/28 01:23:33;;;;;;;80.72;44.67;;;-3.10;99.90;;;-3.26;72.88;100030.28;4957402;28;20200;-68
2021/12/28 01:26:02;;;;;;;76.22;44.40;;;-3.10;99.90;;;-3.28;73.13;100045.44;4957405;28;20208;-66
2021/12/28 01:28:30;;;;;;;83.50;45.88;;;-3.10;99.90;;;-3.17;72.72;100041.84;4956440;28;20204;-68
2021/12/28 01:30:59;;;;;;;85.90;47.58;;;-3.00;99.90;;;-3.25;72.96;100034.59;4957089;28;20187;-69
2021/12/28 01:33:29;;;;;;;77.55;47.13;;;-3.10;99.90;;;-3.18;72.79;100032.22;4957894;29;20211;-68
2021/12/28 01:35:58;;;;;;;79.63;45.67;;;-3.00;99.90;;;-3.26;72.56;100019.69;4961518;29;20179;-68
2021/12/28 01:38:27;;;;;;;79.72;44.17;;;-3.10;99.90;;;-3.29;73.11;100027.88;4961208;28;20270;-68
2021/12/28 01:40:55;;;;;;;84.80;46.97;;;-3.10;99.90;;;-3.26;72.88;100022.34;4961229;28;20192;-67
2021/12/28 01:43:26;;;;;;;87.65;47.25;;;-3.10;99.90;;;-3.23;73.11;100019.41;4961401;28;20196;-67
2021/12/28 01:45:59;;;;;;;84.90;46.55;;;-3.10;99.90;;;-3.30;73.15;100013.00;4973236;28;20208;-65
2021/12/28 01:48:33;;;;;;;83.53;44.65;;;-3.10;99.90;;;-3.21;72.82;100006.06;4972658;28;20216;-67
2021/12/28 01:51:06;;;;;;;93.47;50.53;;;-3.10;99.90;;;-3.29;73.22;100006.72;4958510;28;20676;-67
2021/12/28 01:53:36;;;;;;;82.93;44.03;;;-3.10;99.90;;;-3.26;73.09;99992.41;4958633;28;20176;-67
2021/12/28 01:56:09;;;;;;;82.30;45.05;;;-3.10;99.90;;;-3.16;72.64;99991.44;4959217;28;20239;-67
2021/12/28 01:58:39;;;;;;;64.80;40.70;;;-3.10;99.90;;;-3.23;72.64;99987.66;4957451;28;20208;-68
2021/12/28 02:01:09;;;;;;;92.60;44.72;;;-3.10;99.90;;;-3.21;72.90;99983.09;4956064;28;20190;-67
2021/12/28 02:03:42;;;;;;;84.88;44.85;;;-3.10;99.90;;;-3.21;72.39;99975.16;4956278;28;20200;-68
2021/12/28 02:06:11;;;;;;;67.88;39.58;;;-3.10;99.90;;;-3.25;72.81;99971.09;4956253;29;20236;-65
2021/12/28 02:08:41;;;;;;;78.85;41.78;;;-3.10;99.90;;;-3.26;72.87;99955.34;4957226;29;20219;-67
2021/12/28 02:11:13;;;;;;;78.80;43.53;;;-3.10;99.90;;;-3.24;72.32;99975.41;4958352;28;20173;-66
2021/12/28 02:13:41;;;;;;;85.13;48.50;;;-3.10;99.90;;;-3.23;72.37;99998.25;4957999;28;20187;-67
2021/12/28 02:16:16;;;;;;;80.07;43.65;;;-3.10;99.90;;;-3.26;72.91;100003.81;4957800;28;20176;-67
2021/12/28 02:18:46;;;;;;;81.68;48.45;;;-3.10;99.90;;;-3.19;72.23;100004.94;4959606;28;20204;-65
2021/12/28 02:21:16;;;;;;;85.55;49.17;;;-3.10;99.90;;;-3.24;72.32;99996.56;4964276;28;20200;-66
2021/12/28 02:23:44;;;;;;;90.10;46.25;;;-3.10;99.90;;;-3.29;72.67;100001.44;4962509;28;20263;-67
2021/12/28 02:26:13;;;;;;;84.30;46.47;;;-3.10;99.90;;;-3.37;72.72;99995.97;4956804;28;20200;-68
2021/12/28 02:28:41;;;;;;;80.93;44.22;;;-3.20;99.90;;;-3.42;72.96;99992.91;4959391;28;20204;-67
2021/12/28 02:31:10;;;;;;;75.82;41.00;;;-3.20;99.90;;;-3.36;73.00;99987.09;4959277;28;20219;-67
2021/12/28 02:33:40;;;;;;;76.13;44.90;;;-3.20;99.90;;;-3.43;72.89;99977.16;4959441;28;20627;-68
2021/12/28 02:36:09;;;;;;;80.80;43.15;;;-3.20;99.90;;;-3.41;73.12;99968.13;4959458;28;20184;-66
2021/12/28 02:38:39;;;;;;;74.07;46.63;;;-3.20;99.90;;;-3.53;72.98;99959.47;4959424;28;20215;-66
2021/12/28 02:41:09;;;;;;;83.38;46.40;;;-3.30;99.90;;;-3.49;73.05;99965.34;4959569;28;20645;-67
2021/12/28 02:43:37;;;;;;;80.32;44.10;;;-3.30;99.90;;;-3.53;73.44;99969.19;4959681;28;20188;-65
2021/12/28 02:46:08;;;;;;;80.90;43.92;;;-3.30;99.90;;;-3.50;73.25;99963.66;4959769;28;20216;-67
2021/12/28 02:48:38;;;;;;;81.82;45.78;;;-3.40;99.90;;;-3.52;73.14;99955.84;4960592;29;20723;-67
2021/12/28 02:51:10;;;;;;;85.53;42.42;;;-3.30;99.90;;;-3.57;73.32;99938.72;4960704;28;20189;-68
2021/12/28 02:53:41;;;;;;;82.55;47.30;;;-3.40;99.90;;;-3.65;73.38;99939.41;4964283;28;20188;-67
2021/12/28 02:56:11;;;;;;;100.30;49.85;;;-3.40;99.90;;;-3.60;73.69;99936.34;4963354;28;20239;-68
2021/12/28 02:58:43;;;;;;;89.05;46.15;;;-3.40;99.90;;;-3.66;73.79;99916.56;4962723;28;20964;-67
2021/12/28 03:01:19;;;;;;;86.18;47.05;;;-3.50;99.90;;;-3.68;73.56;99926.44;4977481;28;20196;-68
2021/12/28 03:03:51;;;;;;;90.05;44.75;;;-3.50;99.90;;;-3.64;73.66;99930.50;4960702;28;20195;-66
2021/12/28 03:06:24;;;;;;;83.18;46.53;;;-3.50;99.90;;;-3.63;73.36;99952.50;4975037;28;20275;-67
2021/12/28 03:08:58;;;;;;;92.10;49.17;;;-3.40;99.90;;;-3.63;73.36;99952.50;4958690;29;20208;-68
2021/12/28 03:11:30;;;;;;;79.47;45.53;;;-3.50;99.90;;;-3.64;73.31;99943.72;4959518;28;20168;-67
2021/12/28 03:14:02;;;;;;;85.88;44.58;;;-3.50;99.90;;;-3.66;73.31;99935.06;4959529;28;20272;-68
2021/12/28 03:16:32;;;;;;;81.18;48.78;;;-3.50;99.90;;;-3.66;73.61;99929.78;4959334;28;20543;-66
2021/12/28 03:19:01;;;;;;;88.82;47.05;;;-3.50;99.90;;;-3.70;73.49;99931.03;4959032;28;20243;-68
2021/12/28 03:21:30;;;;;;;98.18;46.70;;;-3.50;99.90;;;-3.65;73.22;99934.13;4973272;28;20246;-67
2021/12/28 03:24:00;;;;;;;88.53;48.58;;;-3.50;99.90;;;-3.63;73.30;99926.88;4958390;28;20183;-67
2021/12/28 03:26:29;;;;;;;85.88;46.67;;;-3.50;99.90;;;-3.57;73.45;99922.84;4958069;28;20204;-66
2021/12/28 03:28:57;;;;;;;88.50;44.67;;;-3.40;99.90;;;-3.48;73.02;99908.81;4958155;28;20212;-67
2021/12/28 03:31:26;;;;;;;82.93;46.15;;;-3.40;99.90;;;-3.56;73.49;99909.50;4958212;28;20684;-67
2021/12/28 03:33:56;;;;;;;83.50;46.95;;;-3.40;99.90;;;-3.58;73.12;99919.34;4958206;28;20181;-66
2021/12/28 03:36:30;;;;;;;83.97;46.88;;;-3.40;99.90;;;-3.54;73.18;99909.38;4958536;29;20199;-66
2021/12/28 03:39:05;;;;;;;84.38;46.70;;;-3.40;99.90;;;-3.38;72.85;99899.06;4957133;28;20243;-66
2021/12/28 03:41:36;;;;;;;73.85;42.40;;;-3.30;99.90;;;-3.40;72.46;99897.56;4959195;28;20673;-69
2021/12/28 03:44:06;;;;;;;94.63;45.30;;;-3.30;99.90;;;-3.39;72.25;99892.13;4961068;28;20206;-67
2021/12/28 03:46:35;;;;;;;86.47;44.95;;;-3.30;99.90;;;-3.38;72.25;99887.66;4961120;28;20263;-66
2021/12/28 03:49:04;;;;;;;94.40;49.42;;;-3.20;99.90;;;-3.37;72.32;99887.53;4961070;28;20212;-68
2021/12/28 03:51:33;;;;;;;92.43;47.38;;;-3.20;99.90;;;-3.38;72.27;99872.63;4958996;28;20184;-67
2021/12/28 03:54:03;;;;;;;83.07;46.80;;;-3.20;99.90;;;-3.34;72.64;99876.66;4958777;28;20695;-67
2021/12/28 03:56:32;;;;;;;96.45;48.67;;;-3.20;99.90;;;-3.42;72.56;99873.88;4958280;28;20579;-68
2021/12/28 03:59:00;;;;;;;93.82;47.40;;;-3.20;99.90;;;-3.43;72.43;99879.28;4957847;28;20704;-66
2021/12/28 04:01:29;;;;;;;95.18;50.60;;;-3.30;99.90;;;-3.37;72.86;99861.06;4958260;28;20180;-67
2021/12/28 04:03:58;;;;;;;87.13;46.75;;;-3.20;99.90;;;-3.35;72.29;99855.66;4958547;28;20660;-68
2021/12/28 04:06:26;;;;;;;85.70;46.33;;;-3.30;99.90;;;-3.37;72.35;99853.13;4957862;28;20692;-66
2021/12/28 04:08:56;;;;;;;85.07;45.58;;;-3.30;99.90;;;-3.44;72.91;99846.75;4957838;28;20366;-67
2021/12/28 04:11:27;;;;;;;95.53;48.70;;;-3.20;99.90;;;-3.35;72.86;99847.72;4957701;28;20181;-68
2021/12/28 04:14:01;;;;;;;92.53;47.25;;;-3.20;99.90;;;-3.35;72.20;99851.19;4957801;28;20173;-67
2021/12/28 04:16:31;;;;;;;85.47;51.30;;;-3.20;99.90;;;-3.27;72.12;99851.34;4957872;28;20168;-67
2021/12/28 04:19:03;;;;;;;90.55;49.67;;;-3.20;99.90;;;-3.34;72.35;99844.09;4957350;29;20294;-67
2021/12/28 04:21:33;;;;;;;89.35;46.83;;;-3.20;99.90;;;-3.31;72.85;99834.06;4957572;28;20568;-68
2021/12/28 04:24:02;;;;;;;91.20;48.58;;;-3.20;99.90;;;-3.30;72.49;99819.88;4957754;28;20184;-67
2021/12/28 04:26:32;;;;;;;82.10;43.42;;;-3.20;99.90;;;-3.36;72.48;99824.88;4957445;29;20207;-67
2021/12/28 04:29:00;;;;;;;86.53;46.33;;;-3.20;99.90;;;-3.38;72.97;99822.38;4958193;28;20223;-67
2021/12/28 04:31:28;;;;;;;94.78;47.88;;;-3.20;99.90;;;-3.37;72.45;99805.53;4958064;28;20195;-65
2021/12/28 04:33:57;;;;;;;94.32;46.92;;;-3.20;99.90;;;-3.36;72.48;99806.38;4958473;29;20196;-66
2021/12/28 04:36:30;;;;;;;95.68;49.80;;;-3.20;99.90;;;-3.30;72.36;99806.66;4957987;28;20240;-66
2021/12/28 04:38:59;;;;;;;101.18;48.72;;;-3.20;99.90;;;-3.27;72.22;99801.06;4958502;28;20220;-66
2021/12/28 04:41:28;;;;;;;111.60;48.45;;;-3.20;99.90;;;-3.31;71.97;99815.56;4959156;28;20204;-66
2021/12/28 04:44:00;;;;;;;93.18;50.30;;;-3.20;99.90;;;-3.33;72.62;99820.13;4959570;28;20630;-68
2021/12/28 04:46:29;;;;;;;91.55;47.92;;;-3.20;99.90;;;-3.28;72.53;99830.28;4958578;29;20229;-67
2021/12/28 04:48:58;;;;;;;94.90;46.40;;;-3.20;99.90;;;-3.25;72.58;99837.97;4958906;28;20212;-68
2021/12/28 04:51:27;;;;;;;87.97;46.58;;;-3.20;99.90;;;-3.22;72.39;99835.03;4958583;28;20195;-67
2021/12/28 04:53:57;;;;;;;87.45;46.60;;;-3.10;99.90;;;-3.25;72.46;99840.63;4958577;28;20188;-65
2021/12/28 04:56:25;;;;;;;85.50;47.08;;;-3.10;99.90;;;-3.15;71.71;99831.69;4957299;28;20184;-66
2021/12/28 04:58:53;;;;;;;94.70;48.22;;;-3.10;99.90;;;-3.19;72.31;99830.28;4957836;28;20235;-66
2021/12/28 05:01:23;;;;;;;90.28;50.85;;;-3.10;99.90;;;-3.15;72.03;99820.28;4955980;28;20199;-67
2021/12/28 05:03:52;;;;;;;91.43;47.72;;;-3.10;99.90;;;-3.16;72.22;99814.16;4957699;28;20560;-67
2021/12/28 05:06:20;;;;;;;91.18;50.50;;;-3.00;99.90;;;-3.10;71.95;99808.28;4957676;28;20192;-65
2021/12/28 05:08:49;;;;;;;93.32;48.92;;;-3.00;99.90;;;-3.12;71.82;99804.94;4958015;28;20219;-68
2021/12/28 05:11:17;;;;;;;95.07;50.25;;;-3.00;99.90;;;-3.12;71.99;99820.84;4958963;28;20192;-67
2021/12/28 05:13:45;;;;;;;85.65;47.70;;;-3.00;99.90;;;-3.10;72.36;99805.63;4958418;28;20192;-66
2021/12/28 05:16:15;;;;;;;82.95;45.78;;;-3.00;99.90;;;-3.00;71.96;99807.44;4958943;28;20237;-66
2021/12/28 05:18:45;;;;;;;109.28;50.85;;;-2.90;99.90;;;-3.01;71.59;99806.63;4957722;29;20219;-67
2021/12/28 05:21:14;;;;;;;86.20;46.55;;;-2.90;99.90;;;-2.90;71.63;99797.66;4958340;28;20176;-68
2021/12/28 05:23:42;;;;;;;92.38;48.78;;;-2.80;99.90;;;-2.91;71.37;99798.66;4956883;28;20180;-68
2021/12/28 05:26:10;;;;;;;94.93;49.17;;;-2.80;99.90;;;-2.79;70.93;99800.13;4957063;28;20200;-67
2021/12/28 05:28:39;;;;;;;87.00;48.53;;;-2.80;99.90;;;-2.83;71.69;99804.06;4957337;28;20220;-69
2021/12/28 05:31:07;;;;;;;85.72;51.22;;;-2.80;99.90;;;-2.75;70.99;99828.84;4960260;28;20623;-68
2021/12/28 05:33:36;;;;;;;91.30;50.75;;;-2.70;99.90;;;-2.62;70.57;99820.59;4958200;28;20696;-67
2021/12/28 05:36:06;;;;;;;92.63;49.95;;;-2.60;99.90;;;-2.60;70.83;99818.63;4973834;28;20251;-67
2021/12/28 05:38:36;;;;;;;89.85;51.80;;;-2.60;99.90;;;-2.58;70.55;99821.97;4956264;28;20204;-67
2021/12/28 05:41:06;;;;;;;84.28;47.30;;;-2.60;99.90;;;-2.58;70.70;99807.88;4955310;28;20184;-68
2021/12/28 05:43:34;;;;;;;90.25;52.35;;;-2.60;99.90;;;-2.51;69.90;99807.16;4955650;28;20191;-66
2021/12/28 05:46:03;;;;;;;86.65;45.42;;;-2.50;99.90;;;-2.42;70.41;99800.97;4955273;28;20191;-65
2021/12/28 05:48:31;;;;;;;80.28;46.08;;;-2.40;99.90;;;-2.48;70.62;99798.94;4955252;29;20643;-65
2021/12/28 05:51:00;;;;;;;90.72;50.75;;;-2.40;99.90;;;-2.50;69.98;99794.75;4957570;28;20184;-68
2021/12/28 05:53:30;;;;;;;103.47;50.42;;;-2.40;99.90;;;-2.55;70.91;99781.09;4959273;28;20184;-66
2021/12/28 05:55:58;;;;;;;96.18;48.92;;;-2.50;99.90;;;-2.51;70.08;99780.66;4956186;28;20223;-67
2021/12/28 05:58:26;;;;;;;84.20;46.47;;;-2.50;99.90;;;-2.57;70.55;99783.91;4956393;28;20760;-68
2021/12/28 06:00:55;;;;;;;83.68;45.38;;;-2.40;99.90;;;-2.51;70.76;99793.91;4956054;28;20180;-67
2021/12/28 06:03:23;;;;;;;84.43;49.17;;;-2.50;99.90;;;-2.52;70.93;99781.66;4955086;28;20192;-68
2021/12/28 06:05:52;;;;;;;90.35;48.40;;;-2.50;99.90;;;-2.46;70.46;99780.22;4956123;28;20196;-68
2021/12/28 06:08:20;;;;;;;90.47;49.58;;;-2.40;99.90;;;-2.43;70.37;99780.78;4955801;28;20470;-67
2021/12/28 06:11:02;;;;;;;96.47;49.33;;;-2.40;99.90;;;-2.34;70.19;99776.41;4955258;28;20193;-67
2021/12/28 06:13:31;;;;;;;87.53;48.42;;;-2.30;99.90;;;-2.45;70.57;99771.31;4955271;28;20202;-67
2021/12/28 06:15:59;;;;;;;85.20;47.33;;;-2.40;99.90;;;-2.33;70.10;99763.03;4957230;28;20615;-67
2021/12/28 06:18:28;;;;;;;85.20;46.47;;;-2.30;99.90;;;-2.38;70.25;99757.34;4971797;28;20321;-70
2021/12/28 06:20:56;;;;;;;89.80;51.28;;;-2.30;99.90;;;-2.36;70.40;99768.59;4956444;28;20576;-67
2021/12/28 06:23:25;;;;;;;85.93;49.28;;;-2.30;99.90;;;-2.38;70.79;99767.09;4957578;28;20199;-64
2021/12/28 06:25:53;;;;;;;92.55;49.45;;;-2.30;99.90;;;-2.33;70.14;99767.50;4955851;29;20179;-67
2021/12/28 06:28:23;;;;;;;98.45;47.58;;;-2.30;99.90;;;-2.26;69.78;99769.38;4955781;28;20204;-67
2021/12/28 06:30:53;;;;;;;85.18;47.17;;;-2.20;99.90;;;-2.31;70.17;99755.75;4956712;28;20180;-67
2021/12/28 06:33:26;;;;;;;86.35;48.83;;;-2.20;99.90;;;-2.33;70.21;99763.03;4958668;28;20384;-66
2021/12/28 06:35:55;;;;;;;91.45;50.60;;;-2.20;99.90;;;-2.42;70.55;99758.59;4956176;29;20184;-66
2021/12/28 06:38:23;;;;;;;79.93;47.80;;;-2.30;99.90;;;-2.28;70.13;99767.88;4970929;28;20627;-68
2021/12/28 06:40:52;;;;;;;89.97;48.70;;;-2.30;99.90;;;-2.28;70.12;99762.59;4956617;28;20188;-66
2021/12/28 06:43:21;;;;;;;93.57;51.75;;;-2.20;99.90;;;-2.34;70.68;99768.47;4956094;28;20416;-67
2021/12/28 06:45:51;;;;;;;101.30;52.40;;;-2.30;99.90;;;-2.28;70.68;99774.03;4957928;28;20235;-67
2021/12/28 06:48:20;;;;;;;93.25;49.65;;;-2.30;99.90;;;-2.30;70.72;99765.38;4971582;28;20215;-67
2021/12/28 06:50:49;;;;;;;96.65;47.92;;;-2.30;99.90;;;-2.26;70.58;99766.75;4957039;28;20215;-67
2021/12/28 06:53:17;;;;;;;107.05;50.42;;;-2.20;99.90;;;-2.12;70.67;99764.56;4958643;28;20193;-67
2021/12/28 06:55:46;;;;;;;91.93;49.60;;;-2.20;99.90;;;-2.25;71.17;99768.41;4961915;28;20221;-67
2021/12/28 06:58:14;;;;;;;105.50;51.80;;;-2.20;99.90;;;-2.20;70.83;99758.22;4961265;28;20184;-66
2021/12/28 07:00:44;;;;;;;80.18;45.63;;;-2.10;99.90;;;-2.25;70.84;99763.13;5072065;23;20726;-69
2021/12/28 07:03:19;;;;;;;90.05;48.38;;;-2.20;99.90;;;-2.33;71.30;99755.09;4936258;29;20185;-70
2021/12/28 07:05:51;;;;;;;85.57;49.03;;;-2.20;99.90;;;-2.16;70.74;99749.94;4936495;29;20184;-72
2021/12/28 07:08:24;;;;;;;83.68;49.70;;;-2.20;99.90;;;-2.28;71.17;99763.41;4936265;29;20209;-70
2021/12/28 07:10:54;;;;;;;86.07;49.28;;;-2.20;99.90;;;-2.15;71.23;99746.31;4936485;29;20184;-69
2021/12/28 07:13:23;;;;;;;90.18;49.00;;;-2.20;99.90;;;-2.20;71.32;99744.13;4936711;29;20197;-69
2021/12/28 07:15:54;;;;;;;93.18;50.85;;;-2.10;99.90;;;-2.08;70.79;99739.47;4940017;29;20237;-71
2021/12/28 07:18:24;;;;;;;79.72;48.28;;;-2.10;99.90;;;-2.07;71.21;99738.44;4940004;29;20212;-71
2021/12/28 07:20:53;;;;;;;84.00;47.20;;;-2.00;99.90;;;-2.04;71.20;99735.53;4940251;29;20796;-70
2021/12/28 07:23:21;;;;;;;91.57;47.70;;;-2.00;99.90;;;-2.03;71.10;99740.66;4941757;29;20173;-69
2021/12/28 07:25:53;;;;;;;86.78;49.30;;;-2.00;99.90;;;-2.00;70.43;99734.22;4942008;29;20173;-70
2021/12/28 07:28:22;;;;;;;85.20;49.13;;;-1.90;99.90;;;-2.15;71.20;99735.72;4941278;29;20586;-72
2021/12/28 07:30:52;;;;;;;93.88;48.72;;;-2.00;99.90;;;-2.17;71.66;99727.91;4941076;29;20248;-70
2021/12/28 07:33:21;;;;;;;90.18;47.83;;;-2.00;99.90;;;-2.00;71.29;99729.75;4940850;29;20633;-69
2021/12/28 07:35:51;;;;;;;84.57;50.40;;;-2.00;99.90;;;-1.99;70.61;99741.22;4940680;29;20185;-69
2021/12/28 07:38:20;;;;;;;88.47;50.55;;;-2.00;99.90;;;-1.99;71.07;99730.59;4940468;29;20710;-70
2021/12/28 07:40:48;;;;;;;102.93;50.38;;;-1.90;99.90;;;-2.03;71.40;99731.88;4939966;29;20232;-70
2021/12/28 07:43:17;;;;;;;99.28;50.78;;;-2.00;99.90;;;-1.93;70.67;99714.06;4939824;29;20192;-70
2021/12/28 07:45:46;;;;;;;105.90;51.33;;;-1.90;99.90;;;-2.00;71.20;99713.03;4939735;29;20268;-71
2021/12/28 07:48:15;;;;;;;99.07;52.00;;;-1.90;99.90;;;-2.08;70.81;99711.09;4937924;28;20224;-70
2021/12/28 07:50:43;;;;;;;106.78;49.63;;;-2.00;99.90;;;-2.00;71.43;99708.56;4939434;29;20263;-70
2021/12/28 07:53:13;;;;;;;70.88;43.97;;;-2.00;99.90;;;-2.07;70.88;99706.63;4938685;29;20276;-69
2021/12/28 07:55:42;;;;;;;89.68;50.42;;;-2.00;99.90;;;-2.01;71.62;99696.28;4939029;29;20272;-69
2021/12/28 07:58:10;;;;;;;84.35;49.45;;;-2.00;99.90;;;-1.93;71.25;99690.22;4938781;29;20209;-71
2021/12/28 08:00:39;;;;;;;81.70;48.10;;;-1.90;99.90;;;-2.03;71.03;99703.53;4939072;29;20197;-70
2021/12/28 08:03:07;;;;;;;93.72;52.25;;;-1.90;99.90;;;-1.95;71.52;99700.16;4938903;29;20241;-69
2021/12/28 08:05:38;;;;;;;94.22;48.05;;;-1.90;99.90;;;-1.92;70.79;99697.19;4939161;29;20193;-70
2021/12/28 08:08:06;;;;;;;95.15;48.60;;;-1.90;99.90;;;-1.78;70.74;99701.94;4939608;29;20212;-71
2021/12/28 08:10:37;;;;;;;88.10;46.83;;;-1.80;99.90;;;-1.67;70.14;99703.53;4940889;29;20181;-71
2021/12/28 08:13:05;;;;;;;80.30;45.60;;;-1.70;99.90;;;-1.70;70.83;99710.00;4941199;29;20181;-70
2021/12/28 08:15:34;;;;;;;89.03;46.47;;;-1.70;99.90;;;-1.69;70.52;99701.03;4940735;29;20192;-70
2021/12/28 08:18:04;;;;;;;87.45;45.30;;;-1.70;99.90;;;-1.74;70.08;99700.66;4941592;29;20212;-71
2021/12/28 08:20:33;;;;;;;84.85;47.75;;;-1.70;99.90;;;-1.77;70.80;99703.63;4939714;29;20184;-71
2021/12/28 08:23:01;;;;;;;80.25;47.00;;;-1.70;99.90;;;-1.74;70.53;99708.63;4939612;29;20185;-69
2021/12/28 08:25:30;;;;;;;90.00;49.83;;;-1.70;99.90;;;-1.58;70.25;99718.53;4938510;29;20657;-70
2021/12/28 08:28:04;;;;;;;83.03;46.33;;;-1.60;99.90;;;-1.58;70.19;99718.53;4937477;29;20255;-70
2021/12/28 08:30:35;;;;;;;102.75;51.40;;;-1.60;99.90;;;-1.58;70.04;99719.38;4938311;29;20593;-70
2021/12/28 08:33:05;;;;;;;85.55;48.40;;;-1.60;99.90;;;-1.58;69.70;99724.69;4938155;29;20197;-69
2021/12/28 08:35:36;;;;;;;78.60;46.08;;;-1.50;99.90;;;-1.54;70.18;99714.59;4940098;29;20240;-71
2021/12/28 08:38:04;;;;;;;87.25;48.47;;;-1.50;99.90;;;-1.63;69.92;99710.19;4939626;29;20630;-70
2021/12/28 08:40:33;;;;;;;87.82;49.15;;;-1.60;99.90;;;-1.41;69.71;99705.25;4938109;29;20196;-71
2021/12/28 08:43:03;;;;;;;95.78;49.70;;;-1.50;99.90;;;-1.43;69.99;99701.91;4939104;29;20567;-69
2021/12/28 08:45:32;;;;;;;90.50;46.00;;;-1.40;99.90;;;-1.32;69.88;99692.88;4939337;29;20192;-71
2021/12/28 08:48:01;;;;;;;75.75;44.67;;;-1.40;99.90;;;-1.32;69.12;99688.41;4938743;29;20217;-70
2021/12/28 08:50:29;;;;;;;97.22;49.28;;;-1.30;99.90;;;-1.35;69.55;99694.00;4938562;29;20204;-70
2021/12/28 08:52:57;;;;;;;91.95;49.45;;;-1.30;99.90;;;-1.22;69.31;99692.78;4937756;29;20178;-71
2021/12/28 08:55:26;;;;;;;94.28;48.35;;;-1.30;99.90;;;-1.04;68.94;99696.19;4940197;29;20217;-71
2021/12/28 08:57:55;;;;;;;85.43;45.15;;;-1.20;99.90;;;-1.08;68.84;99689.53;4936718;28;20592;-69
2021/12/28 09:00:28;;;;;;;90.25;48.20;;;-1.10;99.90;;;-1.13;69.56;99686.53;4936890;29;20196;-71
2021/12/28 09:02:59;;;;;;;90.43;47.80;;;-1.10;99.90;;;-1.12;68.93;99674.94;4937669;29;20644;-69
2021/12/28 09:05:29;;;;;;;93.85;47.28;;;-1.10;99.90;;;-1.21;69.55;99679.31;4935651;28;20240;-71
2021/12/28 09:08:00;;;;;;;90.25;49.75;;;-1.20;99.90;;;-1.12;69.16;99685.53;4936957;29;20213;-70
2021/12/28 09:10:29;;;;;;;90.28;49.15;;;-1.10;99.90;;;-1.09;69.10;99678.09;4936726;29;20256;-70
2021/12/28 09:12:57;;;;;;;83.93;46.80;;;-1.10;99.90;;;-1.06;69.60;99672.44;4936903;29;20181;-70
2021/12/28 09:15:27;;;;;;;85.03;51.70;;;-1.10;99.90;;;-0.95;69.20;99666.03;4936896;29;20664;-71
2021/12/28 09:17:55;;;;;;;84.63;47.55;;;-1.00;99.90;;;-0.95;69.85;99658.91;4937407;29;20208;-70
2021/12/28 09:20:26;;;;;;;90.57;44.80;;;-1.00;99.90;;;-0.92;68.99;99657.78;4936815;29;20193;-70
2021/12/28 09:23:12;;;;;;;85.95;45.20;;;-0.90;99.90;;;-0.82;68.94;99666.44;4937931;29;20648;-71
2021/12/28 09:25:41;;;;;;;79.97;43.97;;;-0.80;99.90;;;-0.85;69.31;99665.91;4937675;29;20182;-71
2021/12/28 09:28:11;;;;;;;72.82;46.30;;;-0.80;99.90;;;-0.87;68.85;99660.75;4938197;29;20212;-71
2021/12/28 09:30:44;;;;;;;97.53;48.85;;;-0.80;99.90;;;-0.87;69.42;99658.94;4937864;28;20277;-72
2021/12/28 09:33:13;;;;;;;87.75;47.90;;;-0.90;99.90;;;-0.85;69.47;99655.31;4938528;29;20185;-70
2021/12/28 09:35:41;;;;;;;88.10;49.38;;;-0.80;99.90;;;-0.85;69.20;99650.00;4937231;29;20251;-70
2021/12/28 09:38:10;;;;;;;84.28;47.22;;;-0.80;99.90;;;-0.86;69.56;99659.78;4938302;29;20212;-71
2021/12/28 09:40:39;;;;;;;88.88;47.25;;;-0.80;99.90;;;-0.81;69.02;99653.97;4938440;28;20189;-70
2021/12/28 09:43:09;;;;;;;85.35;43.85;;;-0.80;99.90;;;-0.91;69.57;99659.41;4939855;29;20177;-70
2021/12/28 09:45:40;;;;;;;80.20;46.67;;;-0.80;99.90;;;-0.83;69.84;99651.50;4939030;28;20228;-70
2021/12/28 09:48:11;;;;;;;73.53;46.13;;;-0.80;99.90;;;-0.68;69.54;99654.41;4940780;29;20232;-70
2021/12/28 09:50:43;;;;;;;84.68;44.17;;;-0.80;99.90;;;-0.55;69.08;99655.59;4940652;29;20228;-72
2021/12/28 09:53:15;;;;;;;82.22;45.72;;;-0.60;99.90;;;-0.66;69.58;99663.84;4940636;29;20199;-70
2021/12/28 09:55:44;;;;;;;90.20;47.60;;;-0.60;99.90;;;-0.78;70.55;99659.84;4940334;29;20192;-72
2021/12/28 09:58:13;;;;;;;84.40;47.70;;;-0.70;99.90;;;-0.80;70.58;99656.50;4937203;28;20221;-73
2021/12/28 10:01:04;;;;;;;79.00;42.72;;;-0.70;99.90;;;-0.59;70.63;99653.44;4936504;28;20206;-72
2021/12/28 10:03:34;;;;;;;79.60;45.78;;;-0.70;99.90;;;-0.53;70.20;99648.28;4937243;29;20547;-71
2021/12/28 10:06:15;;;;;;;78.47;45.22;;;-0.60;99.90;;;-0.48;70.21;99650.44;4937457;29;20500;-71
2021/12/28 10:08:45;;;;;;;78.22;45.08;;;-0.60;99.90;;;-0.47;70.25;99647.63;4935640;28;20271;-73
2021/12/28 10:11:15;;;;;;;74.13;43.42;;;-0.50;99.90;;;-0.38;70.29;99640.50;4937195;29;20216;-72
2021/12/28 10:13:44;;;;;;;79.88;44.40;;;-0.40;99.90;;;-0.32;70.11;99628.41;4937184;29;20232;-71
2021/12/28 10:16:14;;;;;;;77.90;44.03;;;-0.40;99.90;;;-0.35;69.91;99626.09;4937208;29;20165;-72